sensor_id;sensor_type;location;lat;lon;timestamp;pressure;altitude;pressure_sealevel;temperature;humidity
71643;BME280;59438;45.014;39.006;2023-04-28T00:01:38;100341.81;;;17.20;59.88
71643;BME280;59438;45.014;39.006;2023-04-28T00:04:05;100349.97;;;17.17;60.17
71643;BME280;59438;45.014;39.006;2023-04-28T00:06:31;100352.00;;;17.13;59.90
71643;BME280;59438;45.014;39.006;2023-04-28T00:08:59;100360.09;;;17.11;60.63
71643;BME280;59438;45.014;39.006;2023-04-28T00:11:25;100345.22;;;17.09;60.19
71643;BME280;59438;45.014;39.006;2023-04-28T00:13:52;100353.16;;;17.09;60.24
71643;BME280;59438;45.014;39.006;2023-04-28T00:16:18;100357.63;;;17.08;60.16
71643;BME280;59438;45.014;39.006;2023-04-28T00:18:44;100356.78;;;17.08;60.49
71643;BME280;59438;45.014;39.006;2023-04-28T00:21:11;100355.06;;;17.07;60.29
71643;BME280;59438;45.014;39.006;2023-04-28T00:23:37;100357.97;;;17.04;60.62
71643;BME280;59438;45.014;39.006;2023-04-28T00:26:05;100355.53;;;17.01;61.42
71643;BME280;59438;45.014;39.006;2023-04-28T00:28:31;100359.34;;;16.97;60.94
71643;BME280;59438;45.014;39.006;2023-04-28T00:30:57;100361.47;;;16.91;61.31
71643;BME280;59438;45.014;39.006;2023-04-28T00:33:24;100358.16;;;16.88;61.56
71643;BME280;59438;45.014;39.006;2023-04-28T00:35:58;100360.06;;;16.86;62.89
71643;BME280;59438;45.014;39.006;2023-04-28T00:38:24;100361.16;;;16.83;61.85
71643;BME280;59438;45.014;39.006;2023-04-28T00:40:50;100346.69;;;16.75;61.78
71643;BME280;59438;45.014;39.006;2023-04-28T00:43:18;100361.53;;;16.77;62.62
71643;BME280;59438;45.014;39.006;2023-04-28T00:45:44;100342.97;;;16.64;61.97
71643;BME280;59438;45.014;39.006;2023-04-28T00:48:12;100359.09;;;16.74;62.56
71643;BME280;59438;45.014;39.006;2023-04-28T00:50:38;100353.06;;;16.72;62.17
71643;BME280;59438;45.014;39.006;2023-04-28T00:53:05;100347.84;;;16.70;62.19
71643;BME280;59438;45.014;39.006;2023-04-28T00:55:32;100361.22;;;16.69;62.47
71643;BME280;59438;45.014;39.006;2023-04-28T00:58:01;100361.09;;;16.70;63.24
71643;BME280;59438;45.014;39.006;2023-04-28T01:00:29;100369.91;;;16.71;63.04
71643;BME280;59438;45.014;39.006;2023-04-28T01:02:56;100381.25;;;16.73;62.33
71643;BME280;59438;45.014;39.006;2023-04-28T01:05:24;100371.50;;;16.73;62.58
71643;BME280;59438;45.014;39.006;2023-04-28T01:07:50;100370.00;;;16.69;61.92
71643;BME280;59438;45.014;39.006;2023-04-28T01:10:17;100364.59;;;16.71;61.82
71643;BME280;59438;45.014;39.006;2023-04-28T01:12:43;100375.75;;;16.76;61.61
71643;BME280;59438;45.014;39.006;2023-04-28T01:15:14;100374.78;;;16.77;61.91
71643;BME280;59438;45.014;39.006;2023-04-28T01:17:42;100377.34;;;16.79;61.87
71643;BME280;59438;45.014;39.006;2023-04-28T01:20:10;100375.47;;;16.81;61.69
71643;BME280;59438;45.014;39.006;2023-04-28T01:22:36;100376.38;;;16.80;61.62
71643;BME280;59438;45.014;39.006;2023-04-28T01:25:04;100381.81;;;16.78;62.39
71643;BME280;59438;45.014;39.006;2023-04-28T01:27:31;100385.41;;;16.77;61.71
71643;BME280;59438;45.014;39.006;2023-04-28T01:29:57;100382.00;;;16.75;62.26
71643;BME280;59438;45.014;39.006;2023-04-28T01:32:24;100389.97;;;16.75;62.17
71643;BME280;59438;45.014;39.006;2023-04-28T01:34:50;100385.50;;;16.76;61.91
71643;BME280;59438;45.014;39.006;2023-04-28T01:37:16;100392.72;;;16.73;61.82
71643;BME280;59438;45.014;39.006;2023-04-28T01:39:42;100385.63;;;16.74;62.05
71643;BME280;59438;45.014;39.006;2023-04-28T01:42:10;100390.06;;;16.73;62.24
71643;BME280;59438;45.014;39.006;2023-04-28T01:44:37;100377.22;;;16.67;61.95
71643;BME280;59438;45.014;39.006;2023-04-28T01:47:03;100385.63;;;16.74;61.69
71643;BME280;59438;45.014;39.006;2023-04-28T01:49:30;100391.88;;;16.73;61.75
71643;BME280;59438;45.014;39.006;2023-04-28T01:51:56;100379.44;;;16.73;61.95
71643;BME280;59438;45.014;39.006;2023-04-28T01:54:22;100381.47;;;16.70;62.33
71643;BME280;59438;45.014;39.006;2023-04-28T01:56:49;100377.97;;;16.69;62.07
71643;BME280;59438;45.014;39.006;2023-04-28T01:59:17;100360.22;;;16.57;62.82
71643;BME280;59438;45.014;39.006;2023-04-28T02:01:43;100375.53;;;16.66;61.92
71643;BME280;59438;45.014;39.006;2023-04-28T02:04:09;100380.94;;;16.65;62.25
71643;BME280;59438;45.014;39.006;2023-04-28T02:06:36;100374.88;;;16.63;61.94
71643;BME280;59438;45.014;39.006;2023-04-28T02:09:02;100362.88;;;16.57;62.27
71643;BME280;59438;45.014;39.006;2023-04-28T02:11:29;100378.59;;;16.60;62.50
71643;BME280;59438;45.014;39.006;2023-04-28T02:13:55;100373.47;;;16.57;62.68
71643;BME280;59438;45.014;39.006;2023-04-28T02:16:23;100365.19;;;16.49;63.49
71643;BME280;59438;45.014;39.006;2023-04-28T02:18:49;100368.50;;;16.52;63.07
71643;BME280;59438;45.014;39.006;2023-04-28T02:21:15;100358.84;;;16.51;63.42
71643;BME280;59438;45.014;39.006;2023-04-28T02:23:42;100362.44;;;16.50;63.93
71643;BME280;59438;45.014;39.006;2023-04-28T02:26:08;100367.84;;;16.49;64.34
71643;BME280;59438;45.014;39.006;2023-04-28T02:28:34;100374.97;;;16.48;64.99
71643;BME280;59438;45.014;39.006;2023-04-28T02:31:05;100383.00;;;16.47;66.89
71643;BME280;59438;45.014;39.006;2023-04-28T02:33:33;100384.06;;;16.44;66.74
71643;BME280;59438;45.014;39.006;2023-04-28T02:35:59;100385.13;;;16.42;64.97
71643;BME280;59438;45.014;39.006;2023-04-28T02:38:26;100377.28;;;16.40;65.35
71643;BME280;59438;45.014;39.006;2023-04-28T02:40:57;100393.25;;;16.39;67.83
71643;BME280;59438;45.014;39.006;2023-04-28T02:43:23;100392.03;;;16.44;66.42
71643;BME280;59438;45.014;39.006;2023-04-28T02:45:49;100393.50;;;16.36;65.67
71643;BME280;59438;45.014;39.006;2023-04-28T02:48:16;100385.72;;;16.32;66.31
71643;BME280;59438;45.014;39.006;2023-04-28T02:50:43;100401.84;;;16.29;67.57
71643;BME280;59438;45.014;39.006;2023-04-28T02:53:10;100396.72;;;16.26;66.93
71643;BME280;59438;45.014;39.006;2023-04-28T02:55:36;100391.56;;;16.25;66.86
71643;BME280;59438;45.014;39.006;2023-04-28T02:58:03;100397.13;;;16.20;67.18
71643;BME280;59438;45.014;39.006;2023-04-28T03:00:29;100412.19;;;16.20;67.50
71643;BME280;59438;45.014;39.006;2023-04-28T03:02:55;100406.44;;;16.13;67.11
71643;BME280;59438;45.014;39.006;2023-04-28T03:05:22;100413.34;;;16.16;67.80
71643;BME280;59438;45.014;39.006;2023-04-28T03:07:49;100411.66;;;16.15;69.02
71643;BME280;59438;45.014;39.006;2023-04-28T03:10:16;100404.63;;;16.14;67.89
71643;BME280;59438;45.014;39.006;2023-04-28T03:12:42;100410.78;;;16.14;68.06
71643;BME280;59438;45.014;39.006;2023-04-28T03:15:09;100407.28;;;16.14;68.43
71643;BME280;59438;45.014;39.006;2023-04-28T03:17:36;100404.44;;;16.17;68.69
71643;BME280;59438;45.014;39.006;2023-04-28T03:20:03;100404.31;;;16.18;68.63
71643;BME280;59438;45.014;39.006;2023-04-28T03:22:29;100404.13;;;16.21;68.45
71643;BME280;59438;45.014;39.006;2023-04-28T03:24:57;100399.50;;;16.25;69.48
71643;BME280;59438;45.014;39.006;2023-04-28T03:27:23;100395.69;;;16.29;68.47
71643;BME280;59438;45.014;39.006;2023-04-28T03:29:50;100391.91;;;16.33;68.82
71643;BME280;59438;45.014;39.006;2023-04-28T03:32:16;100394.22;;;16.38;68.73
71643;BME280;59438;45.014;39.006;2023-04-28T03:34:43;100389.88;;;16.37;68.47
71643;BME280;59438;45.014;39.006;2023-04-28T03:37:09;100394.00;;;16.41;68.41
71643;BME280;59438;45.014;39.006;2023-04-28T03:39:35;100377.50;;;16.37;68.47
71643;BME280;59438;45.014;39.006;2023-04-28T03:42:04;100404.78;;;16.52;69.72
71643;BME280;59438;45.014;39.006;2023-04-28T03:44:30;100398.41;;;16.55;69.02
71643;BME280;59438;45.014;39.006;2023-04-28T03:46:57;100397.34;;;16.57;68.69
71643;BME280;59438;45.014;39.006;2023-04-28T03:49:23;100399.91;;;16.59;68.62
71643;BME280;59438;45.014;39.006;2023-04-28T03:51:49;100413.91;;;16.61;68.35
71643;BME280;59438;45.014;39.006;2023-04-28T03:54:16;100410.50;;;16.59;68.78
71643;BME280;59438;45.014;39.006;2023-04-28T03:56:43;100424.41;;;16.62;68.65
71643;BME280;59438;45.014;39.006;2023-04-28T03:59:10;100429.72;;;16.62;68.91
71643;BME280;59438;45.014;39.006;2023-04-28T04:01:37;100421.22;;;16.57;67.85
71643;BME280;59438;45.014;39.006;2023-04-28T04:04:04;100422.69;;;16.48;68.35
71643;BME280;59438;45.014;39.006;2023-04-28T04:06:30;100439.03;;;16.55;68.12
71643;BME280;59438;45.014;39.006;2023-04-28T04:08:57;100432.88;;;16.55;68.36
71643;BME280;59438;45.014;39.006;2023-04-28T04:11:23;100433.53;;;16.58;68.10
71643;BME280;59438;45.014;39.006;2023-04-28T04:13:49;100434.28;;;16.60;68.12
71643;BME280;59438;45.014;39.006;2023-04-28T04:16:17;100443.06;;;16.61;68.42
71643;BME280;59438;45.014;39.006;2023-04-28T04:18:43;100443.81;;;16.63;67.81
71643;BME280;59438;45.014;39.006;2023-04-28T04:21:10;100444.47;;;16.66;68.05
71643;BME280;59438;45.014;39.006;2023-04-28T04:23:36;100448.63;;;16.70;67.43
71643;BME280;59438;45.014;39.006;2023-04-28T04:26:02;100443.31;;;16.70;67.46
71643;BME280;59438;45.014;39.006;2023-04-28T04:28:29;100436.00;;;16.74;68.02
71643;BME280;59438;45.014;39.006;2023-04-28T04:30:55;100445.56;;;16.77;67.84
71643;BME280;59438;45.014;39.006;2023-04-28T04:33:23;100436.63;;;16.78;67.94
71643;BME280;59438;45.014;39.006;2023-04-28T04:35:49;100435.50;;;16.82;67.55
71643;BME280;59438;45.014;39.006;2023-04-28T04:38:16;100444.03;;;16.87;67.60
71643;BME280;59438;45.014;39.006;2023-04-28T04:40:42;100441.88;;;16.92;67.48
71643;BME280;59438;45.014;39.006;2023-04-28T04:43:08;100454.44;;;17.03;67.74
71643;BME280;59438;45.014;39.006;2023-04-28T04:45:35;100451.91;;;17.14;67.82
71643;BME280;59438;45.014;39.006;2023-04-28T04:48:01;100466.97;;;17.26;67.57
71643;BME280;59438;45.014;39.006;2023-04-28T04:50:29;100463.47;;;17.39;67.78
71643;BME280;59438;45.014;39.006;2023-04-28T04:52:55;100472.69;;;17.46;67.16
71643;BME280;59438;45.014;39.006;2023-04-28T04:55:22;100480.38;;;17.50;66.98
71643;BME280;59438;45.014;39.006;2023-04-28T04:57:48;100481.13;;;17.52;66.49
71643;BME280;59438;45.014;39.006;2023-04-28T05:00:15;100480.16;;;17.53;66.27
71643;BME280;59438;45.014;39.006;2023-04-28T05:02:42;100479.50;;;17.50;66.19
71643;BME280;59438;45.014;39.006;2023-04-28T05:05:08;100481.41;;;17.48;66.43
71643;BME280;59438;45.014;39.006;2023-04-28T05:07:36;100494.50;;;17.51;66.48
71643;BME280;59438;45.014;39.006;2023-04-28T05:10:02;100493.75;;;17.49;66.33
71643;BME280;59438;45.014;39.006;2023-04-28T05:12:29;100470.38;;;17.41;66.47
71643;BME280;59438;45.014;39.006;2023-04-28T05:14:55;100496.72;;;17.44;66.65
71643;BME280;59438;45.014;39.006;2023-04-28T05:17:21;100482.81;;;17.41;67.04
71643;BME280;59438;45.014;39.006;2023-04-28T05:19:48;100504.38;;;17.36;67.11
71643;BME280;59438;45.014;39.006;2023-04-28T05:22:14;100516.16;;;17.32;67.38
71643;BME280;59438;45.014;39.006;2023-04-28T05:24:42;100529.72;;;17.27;68.28
71643;BME280;59438;45.014;39.006;2023-04-28T05:27:08;100551.28;;;17.23;67.60
71643;BME280;59438;45.014;39.006;2023-04-28T05:29:35;100562.38;;;17.15;68.35
71643;BME280;59438;45.014;39.006;2023-04-28T05:32:01;100559.53;;;17.05;68.52
71643;BME280;59438;45.014;39.006;2023-04-28T05:34:28;100575.00;;;16.99;68.69
71643;BME280;59438;45.014;39.006;2023-04-28T05:36:54;100560.25;;;16.95;69.20
71643;BME280;59438;45.014;39.006;2023-04-28T05:39:20;100553.31;;;16.92;69.49
71643;BME280;59438;45.014;39.006;2023-04-28T05:41:48;100550.13;;;16.87;69.98
71643;BME280;59438;45.014;39.006;2023-04-28T05:44:14;100555.63;;;16.84;69.98
71643;BME280;59438;45.014;39.006;2023-04-28T05:46:41;100542.56;;;16.81;70.47
71643;BME280;59438;45.014;39.006;2023-04-28T05:49:08;100543.69;;;16.77;70.49
71643;BME280;59438;45.014;39.006;2023-04-28T05:51:35;100549.31;;;16.72;70.40
71643;BME280;59438;45.014;39.006;2023-04-28T05:54:01;100556.38;;;16.71;70.76
71643;BME280;59438;45.014;39.006;2023-04-28T05:56:27;100578.19;;;16.77;70.58
71643;BME280;59438;45.014;39.006;2023-04-28T05:58:55;100580.81;;;16.77;71.00
71643;BME280;59438;45.014;39.006;2023-04-28T06:01:22;100573.63;;;16.79;70.71
71643;BME280;59438;45.014;39.006;2023-04-28T06:03:48;100578.09;;;16.78;70.61
71643;BME280;59438;45.014;39.006;2023-04-28T06:06:15;100582.28;;;16.82;70.50
71643;BME280;59438;45.014;39.006;2023-04-28T06:08:41;100574.31;;;16.82;70.69
71643;BME280;59438;45.014;39.006;2023-04-28T06:11:08;100581.31;;;16.83;70.73
71643;BME280;59438;45.014;39.006;2023-04-28T06:13:34;100572.50;;;16.83;70.88
71643;BME280;59438;45.014;39.006;2023-04-28T06:16:03;100561.81;;;16.84;71.57
71643;BME280;59438;45.014;39.006;2023-04-28T06:18:29;100559.25;;;16.83;70.67
71643;BME280;59438;45.014;39.006;2023-04-28T06:20:55;100560.75;;;16.87;70.80
71643;BME280;59438;45.014;39.006;2023-04-28T06:23:22;100566.03;;;16.87;70.64
71643;BME280;59438;45.014;39.006;2023-04-28T06:25:48;100557.13;;;16.88;70.71
71643;BME280;59438;45.014;39.006;2023-04-28T06:28:15;100554.09;;;16.80;70.53
71643;BME280;59438;45.014;39.006;2023-04-28T06:30:41;100568.13;;;16.82;70.39
71643;BME280;59438;45.014;39.006;2023-04-28T06:33:09;100565.56;;;16.80;70.64
71643;BME280;59438;45.014;39.006;2023-04-28T06:35:35;100562.16;;;16.78;70.42
71643;BME280;59438;45.014;39.006;2023-04-28T06:38:01;100560.94;;;16.69;70.45
71643;BME280;59438;45.014;39.006;2023-04-28T06:40:28;100597.22;;;16.83;70.75
71643;BME280;59438;45.014;39.006;2023-04-28T06:42:54;100602.97;;;16.90;70.75
71643;BME280;59438;45.014;39.006;2023-04-28T06:45:20;100610.25;;;17.01;71.56
71643;BME280;59438;45.014;39.006;2023-04-28T06:47:47;100601.66;;;17.10;71.21
71643;BME280;59438;45.014;39.006;2023-04-28T06:50:15;100611.56;;;17.21;71.76
71643;BME280;59438;45.014;39.006;2023-04-28T06:52:41;100609.47;;;17.26;70.39
71643;BME280;59438;45.014;39.006;2023-04-28T06:55:08;100605.66;;;17.30;70.72
71643;BME280;59438;45.014;39.006;2023-04-28T06:57:35;100620.03;;;17.40;70.50
71643;BME280;59438;45.014;39.006;2023-04-28T07:00:01;100609.94;;;17.45;70.33
71643;BME280;59438;45.014;39.006;2023-04-28T07:02:27;100592.72;;;17.38;70.36
71643;BME280;59438;45.014;39.006;2023-04-28T07:04:54;100613.66;;;17.56;70.04
71643;BME280;59438;45.014;39.006;2023-04-28T07:07:22;100584.34;;;17.44;70.57
71643;BME280;59438;45.014;39.006;2023-04-28T07:09:48;100607.59;;;17.53;69.82
71643;BME280;59438;45.014;39.006;2023-04-28T07:12:14;100606.97;;;17.50;69.71
71643;BME280;59438;45.014;39.006;2023-04-28T07:14:41;100611.44;;;17.49;69.96
71643;BME280;59438;45.014;39.006;2023-04-28T07:17:07;100594.31;;;17.41;69.43
71643;BME280;59438;45.014;39.006;2023-04-28T07:19:34;100606.88;;;17.51;69.66
71643;BME280;59438;45.014;39.006;2023-04-28T07:22:00;100610.34;;;17.52;69.69
71643;BME280;59438;45.014;39.006;2023-04-28T07:24:28;100605.19;;;17.50;69.70
71643;BME280;59438;45.014;39.006;2023-04-28T07:26:54;100607.94;;;17.49;69.58
71643;BME280;59438;45.014;39.006;2023-04-28T07:29:21;100595.72;;;17.46;69.55
71643;BME280;59438;45.014;39.006;2023-04-28T07:31:47;100604.22;;;17.51;70.08
71643;BME280;59438;45.014;39.006;2023-04-28T07:34:14;100604.44;;;17.61;70.14
71643;BME280;59438;45.014;39.006;2023-04-28T07:36:40;100589.25;;;17.76;69.27
71643;BME280;59438;45.014;39.006;2023-04-28T07:39:06;100587.25;;;17.92;69.11
71643;BME280;59438;45.014;39.006;2023-04-28T07:41:37;100576.94;;;18.01;69.31
71643;BME280;59438;45.014;39.006;2023-04-28T07:44:04;100608.09;;;18.24;67.63
71643;BME280;59438;45.014;39.006;2023-04-28T07:46:31;100591.72;;;18.30;67.48
71643;BME280;59438;45.014;39.006;2023-04-28T07:48:58;100580.09;;;18.31;67.49
71643;BME280;59438;45.014;39.006;2023-04-28T07:51:24;100587.19;;;18.44;66.80
71643;BME280;59438;45.014;39.006;2023-04-28T07:53:50;100584.19;;;18.48;66.79
71643;BME280;59438;45.014;39.006;2023-04-28T07:56:17;100585.16;;;18.47;66.29
71643;BME280;59438;45.014;39.006;2023-04-28T07:58:45;100598.44;;;18.60;64.85
71643;BME280;59438;45.014;39.006;2023-04-28T08:01:11;100603.75;;;18.60;65.13
71643;BME280;59438;45.014;39.006;2023-04-28T08:03:37;100611.03;;;18.69;66.23
71643;BME280;59438;45.014;39.006;2023-04-28T08:06:04;100614.97;;;18.77;65.86
71643;BME280;59438;45.014;39.006;2023-04-28T08:08:30;100618.91;;;18.84;66.42
71643;BME280;59438;45.014;39.006;2023-04-28T08:10:56;100625.38;;;18.92;65.95
71643;BME280;59438;45.014;39.006;2023-04-28T08:13:23;100628.53;;;18.98;65.48
71643;BME280;59438;45.014;39.006;2023-04-28T08:15:51;100629.19;;;19.01;63.38
71643;BME280;59438;45.014;39.006;2023-04-28T08:18:17;100626.81;;;19.09;64.38
71643;BME280;59438;45.014;39.006;2023-04-28T08:20:43;100626.25;;;19.17;64.31
71643;BME280;59438;45.014;39.006;2023-04-28T08:23:10;100631.31;;;19.20;64.50
71643;BME280;59438;45.014;39.006;2023-04-28T08:25:36;100619.47;;;19.24;64.73
71643;BME280;59438;45.014;39.006;2023-04-28T08:28:03;100626.91;;;19.32;64.91
71643;BME280;59438;45.014;39.006;2023-04-28T08:30:29;100616.28;;;19.43;64.82
71643;BME280;59438;45.014;39.006;2023-04-28T08:32:57;100618.47;;;19.49;64.11
71643;BME280;59438;45.014;39.006;2023-04-28T08:35:23;100626.63;;;19.59;63.80
71643;BME280;59438;45.014;39.006;2023-04-28T08:37:51;100624.34;;;19.66;63.83
71643;BME280;59438;45.014;39.006;2023-04-28T08:40:17;100629.66;;;19.66;63.13
71643;BME280;59438;45.014;39.006;2023-04-28T08:42:44;100625.53;;;19.62;63.29
71643;BME280;59438;45.014;39.006;2023-04-28T08:45:12;100621.41;;;19.58;63.56
71643;BME280;59438;45.014;39.006;2023-04-28T08:47:39;100619.94;;;19.53;63.50
71643;BME280;59438;45.014;39.006;2023-04-28T08:50:07;100615.69;;;19.51;63.36
71643;BME280;59438;45.014;39.006;2023-04-28T08:52:34;100610.72;;;19.46;64.25
71643;BME280;59438;45.014;39.006;2023-04-28T08:55:05;100611.69;;;19.45;64.00
71643;BME280;59438;45.014;39.006;2023-04-28T08:57:35;100607.44;;;19.43;64.39
71643;BME280;59438;45.014;39.006;2023-04-28T09:00:03;100606.81;;;19.39;63.56
71643;BME280;59438;45.014;39.006;2023-04-28T09:02:29;100589.97;;;19.27;64.13
71643;BME280;59438;45.014;39.006;2023-04-28T09:04:56;100592.13;;;19.22;63.77
71643;BME280;59438;45.014;39.006;2023-04-28T09:07:24;100610.28;;;19.28;64.47
71643;BME280;59438;45.014;39.006;2023-04-28T09:10:14;100604.34;;;19.25;65.29
71643;BME280;59438;45.014;39.006;2023-04-28T09:12:40;100606.06;;;19.26;64.56
71643;BME280;59438;45.014;39.006;2023-04-28T09:15:08;100612.13;;;19.28;64.85
71643;BME280;59438;45.014;39.006;2023-04-28T09:17:46;100605.81;;;19.29;65.97
71643;BME280;59438;45.014;39.006;2023-04-28T09:20:18;100617.00;;;19.45;65.41
71643;BME280;59438;45.014;39.006;2023-04-28T09:22:46;100620.81;;;19.54;65.16
71643;BME280;59438;45.014;39.006;2023-04-28T09:25:14;100605.41;;;19.58;64.22
71643;BME280;59438;45.014;39.006;2023-04-28T09:27:40;100618.44;;;19.73;63.91
71643;BME280;59438;45.014;39.006;2023-04-28T09:30:07;100604.19;;;19.86;63.77
71643;BME280;59438;45.014;39.006;2023-04-28T09:32:34;100616.66;;;19.97;63.22
71643;BME280;59438;45.014;39.006;2023-04-28T09:35:01;100617.41;;;20.10;63.40
71643;BME280;59438;45.014;39.006;2023-04-28T09:37:28;100612.44;;;20.28;63.67
71643;BME280;59438;45.014;39.006;2023-04-28T09:39:56;100605.84;;;20.54;64.50
71643;BME280;59438;45.014;39.006;2023-04-28T09:42:34;100613.00;;;20.88;64.04
71643;BME280;59438;45.014;39.006;2023-04-28T09:45:01;100614.94;;;21.18;61.94
71643;BME280;59438;45.014;39.006;2023-04-28T09:47:27;100619.34;;;21.40;61.63
71643;BME280;59438;45.014;39.006;2023-04-28T09:49:54;100613.59;;;21.56;61.32
71643;BME280;59438;45.014;39.006;2023-04-28T09:52:21;100609.47;;;21.73;60.83
71643;BME280;59438;45.014;39.006;2023-04-28T09:54:49;100599.69;;;21.83;60.65
71643;BME280;59438;45.014;39.006;2023-04-28T09:57:17;100605.41;;;22.00;61.37
71643;BME280;59438;45.014;39.006;2023-04-28T09:59:46;100590.78;;;22.04;60.28
71643;BME280;59438;45.014;39.006;2023-04-28T10:02:14;100595.59;;;22.10;59.89
71643;BME280;59438;45.014;39.006;2023-04-28T10:04:41;100592.34;;;22.06;58.92
71643;BME280;59438;45.014;39.006;2023-04-28T10:07:10;100590.50;;;21.97;58.15
71643;BME280;59438;45.014;39.006;2023-04-28T10:09:37;100586.31;;;21.83;58.09
71643;BME280;59438;45.014;39.006;2023-04-28T10:12:04;100579.88;;;21.65;57.91
71643;BME280;59438;45.014;39.006;2023-04-28T10:14:32;100571.88;;;21.44;58.06
71643;BME280;59438;45.014;39.006;2023-04-28T10:16:58;100580.56;;;21.25;58.66
71643;BME280;59438;45.014;39.006;2023-04-28T10:19:26;100578.56;;;21.06;59.01
71643;BME280;59438;45.014;39.006;2023-04-28T10:22:01;100570.63;;;20.95;59.02
71643;BME280;59438;45.014;39.006;2023-04-28T10:24:32;100577.06;;;20.92;59.43
71643;BME280;59438;45.014;39.006;2023-04-28T10:27:08;100571.47;;;20.95;58.42
71643;BME280;59438;45.014;39.006;2023-04-28T10:29:36;100578.84;;;21.03;58.50
71643;BME280;59438;45.014;39.006;2023-04-28T10:32:22;100578.78;;;21.14;58.35
71643;BME280;59438;45.014;39.006;2023-04-28T10:34:48;100594.06;;;21.23;58.35
71643;BME280;59438;45.014;39.006;2023-04-28T10:37:15;100584.94;;;21.26;57.61
71643;BME280;59438;45.014;39.006;2023-04-28T10:42:51;100590.09;;;21.39;56.88
71643;BME280;59438;45.014;39.006;2023-04-28T10:46:01;100593.59;;;21.50;56.81
71643;BME280;59438;45.014;39.006;2023-04-28T10:48:52;100594.50;;;21.61;57.10
71643;BME280;59438;45.014;39.006;2023-04-28T10:51:36;100597.94;;;21.72;55.65
71643;BME280;59438;45.014;39.006;2023-04-28T10:54:13;100590.38;;;21.78;54.76
71643;BME280;59438;45.014;39.006;2023-04-28T10:56:42;100589.53;;;21.77;55.40
71643;BME280;59438;45.014;39.006;2023-04-28T10:59:29;100595.84;;;21.76;55.23
71643;BME280;59438;45.014;39.006;2023-04-28T11:02:36;100598.13;;;21.81;54.36
71643;BME280;59438;45.014;39.006;2023-04-28T11:05:13;100590.84;;;21.83;55.13
71643;BME280;59438;45.014;39.006;2023-04-28T11:07:40;100595.19;;;21.84;55.17
71643;BME280;59438;45.014;39.006;2023-04-28T11:10:07;100600.41;;;21.85;55.05
71643;BME280;59438;45.014;39.006;2023-04-28T11:12:33;100597.72;;;21.85;54.70
71643;BME280;59438;45.014;39.006;2023-04-28T11:15:12;100596.63;;;21.88;53.26
71643;BME280;59438;45.014;39.006;2023-04-28T11:17:39;100597.59;;;21.87;54.11
71643;BME280;59438;45.014;39.006;2023-04-28T11:20:11;100589.00;;;21.83;53.34
71643;BME280;59438;45.014;39.006;2023-04-28T11:22:38;100598.84;;;21.83;53.85
71643;BME280;59438;45.014;39.006;2023-04-28T11:25:06;100586.97;;;21.76;54.11
71643;BME280;59438;45.014;39.006;2023-04-28T11:27:32;100583.53;;;21.64;54.29
71643;BME280;59438;45.014;39.006;2023-04-28T11:29:59;100593.69;;;21.70;54.36
71643;BME280;59438;45.014;39.006;2023-04-28T11:32:28;100604.66;;;21.67;53.65
71643;BME280;59438;45.014;39.006;2023-04-28T11:34:55;100600.44;;;21.64;54.19
71643;BME280;59438;45.014;39.006;2023-04-28T11:37:23;100597.03;;;21.62;54.02
71643;BME280;59438;45.014;39.006;2023-04-28T11:39:49;100590.81;;;21.62;54.21
71643;BME280;59438;45.014;39.006;2023-04-28T11:42:16;100596.31;;;21.60;54.31
71643;BME280;59438;45.014;39.006;2023-04-28T11:44:48;100585.47;;;21.62;53.75
71643;BME280;59438;45.014;39.006;2023-04-28T11:47:15;100594.09;;;21.65;54.25
71643;BME280;59438;45.014;39.006;2023-04-28T11:49:44;100563.38;;;21.60;53.97
71643;BME280;59438;45.014;39.006;2023-04-28T11:52:11;100589.13;;;21.82;53.73
71643;BME280;59438;45.014;39.006;2023-04-28T11:54:38;100596.75;;;21.86;53.62
71643;BME280;59438;45.014;39.006;2023-04-28T11:57:05;100595.50;;;21.90;53.70
71643;BME280;59438;45.014;39.006;2023-04-28T11:59:32;100587.22;;;21.93;53.57
71643;BME280;59438;45.014;39.006;2023-04-28T12:02:01;100590.34;;;21.99;53.38
71643;BME280;59438;45.014;39.006;2023-04-28T12:04:28;100579.78;;;21.97;53.23
71643;BME280;59438;45.014;39.006;2023-04-28T12:07:02;100576.41;;;21.95;52.88
71643;BME280;59438;45.014;39.006;2023-04-28T12:09:29;100565.97;;;21.92;53.37
71643;BME280;59438;45.014;39.006;2023-04-28T12:11:56;100560.59;;;21.92;53.19
71643;BME280;59438;45.014;39.006;2023-04-28T12:14:24;100562.31;;;21.93;53.61
71643;BME280;59438;45.014;39.006;2023-04-28T12:16:50;100558.66;;;21.94;53.48
71643;BME280;59438;45.014;39.006;2023-04-28T12:19:17;100559.50;;;21.94;53.03
71643;BME280;59438;45.014;39.006;2023-04-28T12:21:43;100552.59;;;21.92;53.17
71643;BME280;59438;45.014;39.006;2023-04-28T12:24:24;100562.16;;;21.94;52.86
71643;BME280;59438;45.014;39.006;2023-04-28T12:26:51;100560.47;;;21.93;52.89
71643;BME280;59438;45.014;39.006;2023-04-28T12:29:37;100568.94;;;21.99;52.56
71643;BME280;59438;45.014;39.006;2023-04-28T12:32:05;100548.94;;;21.93;52.44
71643;BME280;59438;45.014;39.006;2023-04-28T12:34:31;100569.22;;;21.96;52.88
71643;BME280;59438;45.014;39.006;2023-04-28T12:36:58;100563.28;;;21.92;51.83
71643;BME280;59438;45.014;39.006;2023-04-28T12:39:26;100574.38;;;21.87;51.98
71643;BME280;59438;45.014;39.006;2023-04-28T12:41:53;100582.13;;;21.90;51.96
71643;BME280;59438;45.014;39.006;2023-04-28T12:44:19;100583.13;;;21.89;52.19
71643;BME280;59438;45.014;39.006;2023-04-28T12:46:46;100583.25;;;21.88;52.08